sensor_id;sensor_type;location;lat;lon;timestamp;P1;durP1;ratioP1;P2;durP2;ratioP2
75496;SDS011;64074;47.540;19.072;2024-03-23T00:53:12;22.85;;;12.18;;
75496;SDS011;64074;47.540;19.072;2024-03-23T00:56:22;25.60;;;13.27;;
75496;SDS011;64074;47.540;19.072;2024-03-23T00:59:42;23.42;;;12.77;;
75496;SDS011;64074;47.540;19.072;2024-03-23T01:02:48;23.77;;;12.50;;
75496;SDS011;64074;47.540;19.072;2024-03-23T01:05:50;22.50;;;12.47;;
75496;SDS011;64074;47.540;19.072;2024-03-23T01:08:57;24.10;;;12.52;;
75496;SDS011;64074;47.540;19.072;2024-03-23T01:12:11;23.65;;;13.40;;
75496;SDS011;64074;47.540;19.072;2024-03-23T01:15:24;26.33;;;12.98;;
75496;SDS011;64074;47.540;19.072;2024-03-23T01:18:31;26.60;;;13.23;;
75496;SDS011;64074;47.540;19.072;2024-03-23T01:21:35;23.40;;;12.47;;
75496;SDS011;64074;47.540;19.072;2024-03-23T01:24:43;22.02;;;12.65;;
75496;SDS011;64074;47.540;19.072;2024-03-23T01:27:51;22.38;;;12.90;;
75496;SDS011;64074;47.540;19.072;2024-03-23T01:30:53;23.25;;;12.80;;
75496;SDS011;64074;47.540;19.072;2024-03-23T01:34:02;23.85;;;13.07;;
75496;SDS011;64074;47.540;19.072;2024-03-23T01:37:12;26.23;;;13.67;;
75496;SDS011;64074;47.540;19.072;2024-03-23T01:40:28;24.60;;;13.60;;
75496;SDS011;64074;47.540;19.072;2024-03-23T01:43:37;31.63;;;14.48;;
75496;SDS011;64074;47.540;19.072;2024-03-23T01:46:52;25.45;;;13.20;;
75496;SDS011;64074;47.540;19.072;2024-03-23T01:56:05;28.03;;;13.90;;
75496;SDS011;64074;47.540;19.072;2024-03-23T01:59:14;25.48;;;13.15;;
75496;SDS011;64074;47.540;19.072;2024-03-23T02:02:28;26.20;;;13.35;;
75496;SDS011;64074;47.540;19.072;2024-03-23T02:05:42;26.80;;;13.50;;
75496;SDS011;64074;47.540;19.072;2024-03-23T02:08:44;24.70;;;13.38;;
75496;SDS011;64074;47.540;19.072;2024-03-23T02:11:53;21.67;;;12.90;;
75496;SDS011;64074;47.540;19.072;2024-03-23T02:15:04;24.88;;;13.35;;
75496;SDS011;64074;47.540;19.072;2024-03-23T02:18:34;23.95;;;13.70;;
75496;SDS011;64074;47.540;19.072;2024-03-23T02:21:50;24.08;;;13.38;;
75496;SDS011;64074;47.540;19.072;2024-03-23T02:25:12;26.30;;;13.75;;
75496;SDS011;64074;47.540;19.072;2024-03-23T02:28:34;25.30;;;13.27;;
75496;SDS011;64074;47.540;19.072;2024-03-23T02:31:56;26.05;;;13.43;;
75496;SDS011;64074;47.540;19.072;2024-03-23T02:35:19;24.40;;;13.45;;
75496;SDS011;64074;47.540;19.072;2024-03-23T02:38:48;33.47;;;14.65;;
75496;SDS011;64074;47.540;19.072;2024-03-23T02:42:05;25.55;;;13.30;;
75496;SDS011;64074;47.540;19.072;2024-03-23T02:45:23;27.40;;;14.30;;
75496;SDS011;64074;47.540;19.072;2024-03-23T02:48:38;28.70;;;15.27;;
75496;SDS011;64074;47.540;19.072;2024-03-23T02:52:00;27.73;;;14.85;;
75496;SDS011;64074;47.540;19.072;2024-03-23T02:55:18;30.83;;;14.75;;
75496;SDS011;64074;47.540;19.072;2024-03-23T02:58:52;31.50;;;15.75;;
75496;SDS011;64074;47.540;19.072;2024-03-23T03:02:08;33.77;;;17.47;;
75496;SDS011;64074;47.540;19.072;2024-03-23T03:05:42;30.60;;;15.23;;
75496;SDS011;64074;47.540;19.072;2024-03-23T03:08:59;28.20;;;15.02;;
75496;SDS011;64074;47.540;19.072;2024-03-23T03:12:21;30.67;;;15.50;;
75496;SDS011;64074;47.540;19.072;2024-03-23T03:15:29;35.72;;;17.73;;
75496;SDS011;64074;47.540;19.072;2024-03-23T03:18:51;35.27;;;18.23;;
75496;SDS011;64074;47.540;19.072;2024-03-23T03:22:01;35.90;;;19.30;;
75496;SDS011;64074;47.540;19.072;2024-03-23T03:25:07;41.10;;;21.00;;
75496;SDS011;64074;47.540;19.072;2024-03-23T03:28:17;45.17;;;22.50;;
75496;SDS011;64074;47.540;19.072;2024-03-23T03:31:24;42.10;;;21.52;;
75496;SDS011;64074;47.540;19.072;2024-03-23T03:34:27;39.37;;;21.30;;
75496;SDS011;64074;47.540;19.072;2024-03-23T03:37:38;42.28;;;22.30;;
75496;SDS011;64074;47.540;19.072;2024-03-23T03:40:49;44.30;;;22.15;;
75496;SDS011;64074;47.540;19.072;2024-03-23T03:44:21;45.88;;;21.30;;
75496;SDS011;64074;47.540;19.072;2024-03-23T03:47:42;42.70;;;21.67;;
75496;SDS011;64074;47.540;19.072;2024-03-23T03:50:46;40.47;;;21.37;;
75496;SDS011;64074;47.540;19.072;2024-03-23T03:53:55;42.97;;;21.55;;
75496;SDS011;64074;47.540;19.072;2024-03-23T03:57:23;42.70;;;22.33;;
75496;SDS011;64074;47.540;19.072;2024-03-23T04:00:35;42.67;;;21.73;;
75496;SDS011;64074;47.540;19.072;2024-03-23T04:03:43;45.20;;;22.73;;
75496;SDS011;64074;47.540;19.072;2024-03-23T04:06:58;40.43;;;21.37;;
75496;SDS011;64074;47.540;19.072;2024-03-23T04:10:07;45.22;;;22.88;;
75496;SDS011;64074;47.540;19.072;2024-03-23T04:13:13;49.50;;;23.30;;
75496;SDS011;64074;47.540;19.072;2024-03-23T04:16:29;42.45;;;21.17;;
75496;SDS011;64074;47.540;19.072;2024-03-23T04:19:46;43.63;;;21.55;;
75496;SDS011;64074;47.540;19.072;2024-03-23T04:23:00;44.63;;;22.87;;
75496;SDS011;64074;47.540;19.072;2024-03-23T04:26:10;43.13;;;22.40;;
75496;SDS011;64074;47.540;19.072;2024-03-23T04:29:52;40.22;;;21.35;;
75496;SDS011;64074;47.540;19.072;2024-03-23T04:33:13;40.83;;;21.48;;
75496;SDS011;64074;47.540;19.072;2024-03-23T04:36:35;40.58;;;21.45;;
75496;SDS011;64074;47.540;19.072;2024-03-23T04:40:01;37.77;;;20.20;;
75496;SDS011;64074;47.540;19.072;2024-03-23T04:43:11;39.47;;;19.95;;
75496;SDS011;64074;47.540;19.072;2024-03-23T04:46:41;36.20;;;19.65;;
75496;SDS011;64074;47.540;19.072;2024-03-23T04:49:59;36.38;;;19.42;;
75496;SDS011;64074;47.540;19.072;2024-03-23T04:53:09;34.85;;;19.08;;
75496;SDS011;64074;47.540;19.072;2024-03-23T04:56:32;34.37;;;18.37;;
75496;SDS011;64074;47.540;19.072;2024-03-23T04:59:44;36.90;;;18.77;;
75496;SDS011;64074;47.540;19.072;2024-03-23T05:02:54;37.78;;;19.75;;
75496;SDS011;64074;47.540;19.072;2024-03-23T05:06:15;34.17;;;19.17;;
75496;SDS011;64074;47.540;19.072;2024-03-23T05:09:32;34.78;;;18.27;;
75496;SDS011;64074;47.540;19.072;2024-03-23T05:12:52;34.40;;;18.40;;
75496;SDS011;64074;47.540;19.072;2024-03-23T05:16:13;35.28;;;18.13;;
75496;SDS011;64074;47.540;19.072;2024-03-23T05:19:35;36.53;;;18.30;;
75496;SDS011;64074;47.540;19.072;2024-03-23T05:23:00;35.45;;;18.13;;
75496;SDS011;64074;47.540;19.072;2024-03-23T05:26:20;33.72;;;17.60;;
75496;SDS011;64074;47.540;19.072;2024-03-23T05:29:45;32.83;;;17.70;;
75496;SDS011;64074;47.540;19.072;2024-03-23T05:33:05;32.75;;;17.90;;
75496;SDS011;64074;47.540;19.072;2024-03-23T05:36:27;39.33;;;18.23;;
75496;SDS011;64074;47.540;19.072;2024-03-23T05:39:48;34.28;;;16.98;;
75496;SDS011;64074;47.540;19.072;2024-03-23T05:43:03;32.42;;;17.25;;
75496;SDS011;64074;47.540;19.072;2024-03-23T05:46:18;30.57;;;16.53;;
75496;SDS011;64074;47.540;19.072;2024-03-23T05:49:34;34.75;;;17.05;;
75496;SDS011;64074;47.540;19.072;2024-03-23T05:52:43;31.92;;;17.05;;
75496;SDS011;64074;47.540;19.072;2024-03-23T05:56:00;34.63;;;16.70;;
75496;SDS011;64074;47.540;19.072;2024-03-23T05:59:12;34.00;;;17.35;;
75496;SDS011;64074;47.540;19.072;2024-03-23T06:02:25;31.83;;;17.30;;
75496;SDS011;64074;47.540;19.072;2024-03-23T06:05:32;32.47;;;17.08;;
75496;SDS011;64074;47.540;19.072;2024-03-23T06:08:40;30.08;;;16.77;;
75496;SDS011;64074;47.540;19.072;2024-03-23T06:11:53;30.10;;;16.65;;
75496;SDS011;64074;47.540;19.072;2024-03-23T06:15:13;30.52;;;16.65;;
75496;SDS011;64074;47.540;19.072;2024-03-23T06:18:36;32.63;;;16.07;;
75496;SDS011;64074;47.540;19.072;2024-03-23T06:22:03;29.67;;;15.90;;
75496;SDS011;64074;47.540;19.072;2024-03-23T06:25:20;29.70;;;16.20;;
75496;SDS011;64074;47.540;19.072;2024-03-23T06:28:47;31.55;;;16.45;;
75496;SDS011;64074;47.540;19.072;2024-03-23T06:32:09;31.02;;;16.10;;
75496;SDS011;64074;47.540;19.072;2024-03-23T06:35:25;29.73;;;15.23;;
75496;SDS011;64074;47.540;19.072;2024-03-23T06:38:51;32.75;;;16.05;;
75496;SDS011;64074;47.540;19.072;2024-03-23T06:42:05;31.67;;;17.27;;
75496;SDS011;64074;47.540;19.072;2024-03-23T06:45:13;28.08;;;16.42;;
75496;SDS011;64074;47.540;19.072;2024-03-23T06:48:24;28.52;;;16.10;;
75496;SDS011;64074;47.540;19.072;2024-03-23T06:51:34;30.20;;;16.43;;
75496;SDS011;64074;47.540;19.072;2024-03-23T06:54:52;30.35;;;16.75;;
75496;SDS011;64074;47.540;19.072;2024-03-23T06:58:09;30.25;;;16.40;;
75496;SDS011;64074;47.540;19.072;2024-03-23T07:01:12;31.80;;;16.85;;
75496;SDS011;64074;47.540;19.072;2024-03-23T07:04:21;33.55;;;16.63;;
75496;SDS011;64074;47.540;19.072;2024-03-23T07:07:34;29.30;;;16.27;;
75496;SDS011;64074;47.540;19.072;2024-03-23T07:10:54;30.60;;;16.25;;
75496;SDS011;64074;47.540;19.072;2024-03-23T07:14:16;29.88;;;16.48;;
75496;SDS011;64074;47.540;19.072;2024-03-23T07:17:38;32.17;;;16.88;;
75496;SDS011;64074;47.540;19.072;2024-03-23T07:20:57;26.20;;;15.07;;
75496;SDS011;64074;47.540;19.072;2024-03-23T07:24:22;28.97;;;15.23;;
75496;SDS011;64074;47.540;19.072;2024-03-23T07:27:48;27.52;;;15.15;;
75496;SDS011;64074;47.540;19.072;2024-03-23T07:34:19;31.08;;;16.17;;
75496;SDS011;64074;47.540;19.072;2024-03-23T07:37:50;27.30;;;15.18;;
75496;SDS011;64074;47.540;19.072;2024-03-23T07:41:10;27.27;;;15.50;;
75496;SDS011;64074;47.540;19.072;2024-03-23T07:44:30;29.67;;;16.13;;
75496;SDS011;64074;47.540;19.072;2024-03-23T07:47:56;31.42;;;17.25;;
75496;SDS011;64074;47.540;19.072;2024-03-23T07:51:21;26.88;;;15.43;;
75496;SDS011;64074;47.540;19.072;2024-03-23T07:54:37;29.63;;;16.42;;
75496;SDS011;64074;47.540;19.072;2024-03-23T07:57:57;26.33;;;15.77;;
75496;SDS011;64074;47.540;19.072;2024-03-23T08:01:11;29.55;;;16.65;;
75496;SDS011;64074;47.540;19.072;2024-03-23T08:04:19;31.20;;;17.23;;
75496;SDS011;64074;47.540;19.072;2024-03-23T08:07:30;31.63;;;18.02;;
75496;SDS011;64074;47.540;19.072;2024-03-23T08:10:52;31.92;;;16.98;;
75496;SDS011;64074;47.540;19.072;2024-03-23T08:14:06;31.17;;;17.23;;
75496;SDS011;64074;47.540;19.072;2024-03-23T08:17:31;35.75;;;18.20;;
75496;SDS011;64074;47.540;19.072;2024-03-23T08:20:42;29.05;;;18.13;;
75496;SDS011;64074;47.540;19.072;2024-03-23T08:24:13;31.92;;;17.77;;
75496;SDS011;64074;47.540;19.072;2024-03-23T08:27:36;26.45;;;15.45;;
75496;SDS011;64074;47.540;19.072;2024-03-23T08:31:00;26.17;;;15.87;;
75496;SDS011;64074;47.540;19.072;2024-03-23T08:34:24;29.75;;;15.25;;
75496;SDS011;64074;47.540;19.072;2024-03-23T08:37:36;26.33;;;14.75;;
75496;SDS011;64074;47.540;19.072;2024-03-23T08:41:05;24.83;;;14.68;;
75496;SDS011;64074;47.540;19.072;2024-03-23T08:44:20;23.45;;;14.13;;
75496;SDS011;64074;47.540;19.072;2024-03-23T08:47:32;24.77;;;14.33;;
75496;SDS011;64074;47.540;19.072;2024-03-23T08:50:37;25.42;;;14.13;;
75496;SDS011;64074;47.540;19.072;2024-03-23T08:53:43;23.02;;;13.23;;
75496;SDS011;64074;47.540;19.072;2024-03-23T08:56:46;21.40;;;12.98;;
75496;SDS011;64074;47.540;19.072;2024-03-23T08:59:55;22.85;;;13.05;;
75496;SDS011;64074;47.540;19.072;2024-03-23T09:03:08;23.43;;;13.27;;
75496;SDS011;64074;47.540;19.072;2024-03-23T09:06:21;25.35;;;14.07;;
75496;SDS011;64074;47.540;19.072;2024-03-23T09:09:48;23.40;;;13.88;;
75496;SDS011;64074;47.540;19.072;2024-03-23T09:13:07;21.35;;;13.30;;
75496;SDS011;64074;47.540;19.072;2024-03-23T09:16:26;26.65;;;13.15;;
75496;SDS011;64074;47.540;19.072;2024-03-23T09:19:49;24.97;;;12.90;;
75496;SDS011;64074;47.540;19.072;2024-03-23T09:23:13;18.33;;;11.07;;
75496;SDS011;64074;47.540;19.072;2024-03-23T09:26:26;22.42;;;12.45;;
75496;SDS011;64074;47.540;19.072;2024-03-23T09:29:29;20.20;;;12.00;;
75496;SDS011;64074;47.540;19.072;2024-03-23T09:32:39;21.67;;;12.52;;
75496;SDS011;64074;47.540;19.072;2024-03-23T09:36:02;20.23;;;11.60;;
75496;SDS011;64074;47.540;19.072;2024-03-23T09:39:20;21.42;;;12.00;;
75496;SDS011;64074;47.540;19.072;2024-03-23T09:42:23;17.60;;;11.18;;
75496;SDS011;64074;47.540;19.072;2024-03-23T09:45:29;15.35;;;10.93;;
75496;SDS011;64074;47.540;19.072;2024-03-23T09:48:35;18.02;;;10.70;;
75496;SDS011;64074;47.540;19.072;2024-03-23T09:51:45;16.43;;;10.27;;
75496;SDS011;64074;47.540;19.072;2024-03-23T09:55:08;17.08;;;11.07;;
75496;SDS011;64074;47.540;19.072;2024-03-23T09:58:27;16.70;;;10.07;;
75496;SDS011;64074;47.540;19.072;2024-03-23T10:01:38;15.52;;;10.13;;
75496;SDS011;64074;47.540;19.072;2024-03-23T10:04:48;15.75;;;9.93;;
75496;SDS011;64074;47.540;19.072;2024-03-23T10:11:26;14.68;;;10.18;;
75496;SDS011;64074;47.540;19.072;2024-03-23T10:14:37;13.68;;;9.00;;
75496;SDS011;64074;47.540;19.072;2024-03-23T10:17:59;14.65;;;8.90;;
75496;SDS011;64074;47.540;19.072;2024-03-23T10:21:35;13.30;;;8.23;;
75496;SDS011;64074;47.540;19.072;2024-03-23T10:24:38;10.63;;;6.50;;
75496;SDS011;64074;47.540;19.072;2024-03-23T10:27:44;10.77;;;6.85;;
75496;SDS011;64074;47.540;19.072;2024-03-23T10:31:08;9.82;;;5.93;;
75496;SDS011;64074;47.540;19.072;2024-03-23T10:34:17;11.25;;;6.30;;
75496;SDS011;64074;47.540;19.072;2024-03-23T10:37:27;8.57;;;5.93;;
75496;SDS011;64074;47.540;19.072;2024-03-23T10:40:34;10.93;;;6.13;;
75496;SDS011;64074;47.540;19.072;2024-03-23T10:43:45;12.32;;;6.50;;
75496;SDS011;64074;47.540;19.072;2024-03-23T10:46:49;12.35;;;6.03;;
75496;SDS011;64074;47.540;19.072;2024-03-23T10:50:12;10.60;;;5.60;;
75496;SDS011;64074;47.540;19.072;2024-03-23T10:53:41;9.20;;;5.72;;
75496;SDS011;64074;47.540;19.072;2024-03-23T11:00:26;10.40;;;5.85;;
75496;SDS011;64074;47.540;19.072;2024-03-23T11:03:47;10.32;;;5.78;;
75496;SDS011;64074;47.540;19.072;2024-03-23T11:06:55;11.05;;;5.35;;
75496;SDS011;64074;47.540;19.072;2024-03-23T11:10:06;10.10;;;5.75;;
75496;SDS011;64074;47.540;19.072;2024-03-23T11:13:55;9.73;;;5.23;;
75496;SDS011;64074;47.540;19.072;2024-03-23T11:17:19;9.13;;;5.20;;
75496;SDS011;64074;47.540;19.072;2024-03-23T11:20:38;18.67;;;5.07;;
75496;SDS011;64074;47.540;19.072;2024-03-23T11:24:14;7.55;;;4.50;;
75496;SDS011;64074;47.540;19.072;2024-03-23T11:27:17;10.57;;;4.38;;
75496;SDS011;64074;47.540;19.072;2024-03-23T11:30:26;7.10;;;4.40;;
75496;SDS011;64074;47.540;19.072;2024-03-23T11:34:06;8.50;;;4.10;;
75496;SDS011;64074;47.540;19.072;2024-03-23T11:37:36;7.38;;;4.65;;
75496;SDS011;64074;47.540;19.072;2024-03-23T11:40:47;9.50;;;4.72;;
75496;SDS011;64074;47.540;19.072;2024-03-23T11:44:19;6.75;;;3.97;;
75496;SDS011;64074;47.540;19.072;2024-03-23T11:47:40;7.10;;;4.00;;
75496;SDS011;64074;47.540;19.072;2024-03-23T11:51:00;10.20;;;4.32;;
75496;SDS011;64074;47.540;19.072;2024-03-23T11:54:21;9.23;;;4.50;;
75496;SDS011;64074;47.540;19.072;2024-03-23T11:57:44;9.80;;;4.35;;
75496;SDS011;64074;47.540;19.072;2024-03-23T12:01:10;7.55;;;4.40;;
75496;SDS011;64074;47.540;19.072;2024-03-23T12:04:31;10.07;;;4.23;;
75496;SDS011;64074;47.540;19.072;2024-03-23T12:07:53;7.95;;;4.75;;
75496;SDS011;64074;47.540;19.072;2024-03-23T12:11:14;8.07;;;4.30;;
75496;SDS011;64074;47.540;19.072;2024-03-23T12:14:36;9.88;;;3.90;;
75496;SDS011;64074;47.540;19.072;2024-03-23T12:18:08;6.82;;;3.90;;
75496;SDS011;64074;47.540;19.072;2024-03-23T12:21:20;13.40;;;3.87;;
75496;SDS011;64074;47.540;19.072;2024-03-23T12:24:42;6.13;;;3.45;;
75496;SDS011;64074;47.540;19.072;2024-03-23T12:28:06;13.48;;;3.70;;
75496;SDS011;64074;47.540;19.072;2024-03-23T12:31:28;5.65;;;3.50;;
75496;SDS011;64074;47.540;19.072;2024-03-23T12:34:47;8.05;;;3.53;;
75496;SDS011;64074;47.540;19.072;2024-03-23T12:38:06;5.17;;;3.30;;
75496;SDS011;64074;47.540;19.072;2024-03-23T12:41:32;5.88;;;3.03;;
75496;SDS011;64074;47.540;19.072;2024-03-23T12:44:51;7.65;;;3.22;;
75496;SDS011;64074;47.540;19.072;2024-03-23T12:48:11;5.50;;;3.40;;
75496;SDS011;64074;47.540;19.072;2024-03-23T12:51:30;9.77;;;3.88;;
75496;SDS011;64074;47.540;19.072;2024-03-23T12:55:03;4.80;;;2.90;;
75496;SDS011;64074;47.540;19.072;2024-03-23T12:58:15;6.47;;;3.00;;
75496;SDS011;64074;47.540;19.072;2024-03-23T13:01:33;4.50;;;2.75;;
75496;SDS011;64074;47.540;19.072;2024-03-23T13:04:36;5.80;;;2.70;;
75496;SDS011;64074;47.540;19.072;2024-03-23T13:07:44;6.53;;;2.88;;
75496;SDS011;64074;47.540;19.072;2024-03-23T13:10:59;6.43;;;3.03;;
75496;SDS011;64074;47.540;19.072;2024-03-23T13:14:14;7.22;;;4.15;;
75496;SDS011;64074;47.540;19.072;2024-03-23T13:17:48;5.45;;;3.10;;
75496;SDS011;64074;47.540;19.072;2024-03-23T13:21:16;5.85;;;2.97;;
75496;SDS011;64074;47.540;19.072;2024-03-23T13:24:36;4.47;;;2.83;;
75496;SDS011;64074;47.540;19.072;2024-03-23T13:27:57;5.60;;;2.30;;
75496;SDS011;64074;47.540;19.072;2024-03-23T13:31:06;7.35;;;3.17;;
75496;SDS011;64074;47.540;19.072;2024-03-23T13:34:17;3.60;;;2.60;;
75496;SDS011;64074;47.540;19.072;2024-03-23T13:37:26;3.33;;;2.50;;
75496;SDS011;64074;47.540;19.072;2024-03-23T13:40:56;4.93;;;2.85;;
75496;SDS011;64074;47.540;19.072;2024-03-23T13:44:06;5.50;;;2.37;;
75496;SDS011;64074;47.540;19.072;2024-03-23T13:47:29;4.63;;;2.70;;
75496;SDS011;64074;47.540;19.072;2024-03-23T13:50:45;4.68;;;2.80;;
75496;SDS011;64074;47.540;19.072;2024-03-23T13:53:57;4.93;;;2.60;;
75496;SDS011;64074;47.540;19.072;2024-03-23T13:57:06;4.30;;;2.95;;
75496;SDS011;64074;47.540;19.072;2024-03-23T14:00:13;3.33;;;2.57;;
75496;SDS011;64074;47.540;19.072;2024-03-23T14:03:23;6.80;;;2.70;;
75496;SDS011;64074;47.540;19.072;2024-03-23T14:06:44;4.13;;;2.53;;
75496;SDS011;64074;47.540;19.072;2024-03-23T14:10:10;3.75;;;2.50;;
75496;SDS011;64074;47.540;19.072;2024-03-23T14:13:27;5.75;;;2.70;;
75496;SDS011;64074;47.540;19.072;2024-03-23T14:16:54;8.00;;;3.80;;
75496;SDS011;64074;47.540;19.072;2024-03-23T14:20:14;4.78;;;2.60;;
75496;SDS011;64074;47.540;19.072;2024-03-23T14:23:30;3.67;;;2.83;;
75496;SDS011;64074;47.540;19.072;2024-03-23T14:26:42;5.82;;;2.63;;
75496;SDS011;64074;47.540;19.072;2024-03-23T14:29:51;3.90;;;2.50;;
75496;SDS011;64074;47.540;19.072;2024-03-23T14:32:54;3.60;;;2.70;;
75496;SDS011;64074;47.540;19.072;2024-03-23T14:36:03;4.40;;;2.47;;
75496;SDS011;64074;47.540;19.072;2024-03-23T14:39:26;5.97;;;2.80;;
75496;SDS011;64074;47.540;19.072;2024-03-23T14:42:53;4.68;;;2.78;;
75496;SDS011;64074;47.540;19.072;2024-03-23T14:46:14;3.67;;;2.70;;
75496;SDS011;64074;47.540;19.072;2024-03-23T14:49:37;6.17;;;2.53;;
75496;SDS011;64074;47.540;19.072;2024-03-23T14:53:02;4.15;;;2.40;;
75496;SDS011;64074;47.540;19.072;2024-03-23T14:56:30;5.93;;;2.92;;
75496;SDS011;64074;47.540;19.072;2024-03-23T15:00:03;8.95;;;2.83;;
75496;SDS011;64074;47.540;19.072;2024-03-23T15:03:18;4.40;;;2.67;;
75496;SDS011;64074;47.540;19.072;2024-03-23T15:06:37;5.27;;;2.40;;
75496;SDS011;64074;47.540;19.072;2024-03-23T15:09:54;4.78;;;3.00;;
75496;SDS011;64074;47.540;19.072;2024-03-23T15:13:11;6.65;;;2.70;;
75496;SDS011;64074;47.540;19.072;2024-03-23T15:16:33;7.30;;;2.97;;
75496;SDS011;64074;47.540;19.072;2024-03-23T15:19:36;4.72;;;2.83;;
75496;SDS011;64074;47.540;19.072;2024-03-23T15:22:38;5.87;;;2.53;;
75496;SDS011;64074;47.540;19.072;2024-03-23T15:25:57;6.28;;;3.05;;
75496;SDS011;64074;47.540;19.072;2024-03-23T15:29:06;5.85;;;3.50;;
75496;SDS011;64074;47.540;19.072;2024-03-23T15:32:26;7.28;;;3.40;;
75496;SDS011;64074;47.540;19.072;2024-03-23T15:35:32;4.93;;;3.22;;
75496;SDS011;64074;47.540;19.072;2024-03-23T15:38:34;5.33;;;3.27;;
75496;SDS011;64074;47.540;19.072;2024-03-23T15:41:45;5.70;;;3.72;;
75496;SDS011;64074;47.540;19.072;2024-03-23T15:45:23;5.78;;;3.28;;
75496;SDS011;64074;47.540;19.072;2024-03-23T15:48:50;4.18;;;3.45;;
75496;SDS011;64074;47.540;19.072;2024-03-23T15:52:10;4.80;;;3.55;;
75496;SDS011;64074;47.540;19.072;2024-03-23T15:55:30;5.03;;;3.23;;
75496;SDS011;64074;47.540;19.072;2024-03-23T15:58:47;4.10;;;2.80;;
75496;SDS011;64074;47.540;19.072;2024-03-23T16:01:50;5.57;;;3.38;;
75496;SDS011;64074;47.540;19.072;2024-03-23T16:04:59;5.50;;;2.80;;
75496;SDS011;64074;47.540;19.072;2024-03-23T16:08:18;6.63;;;3.30;;
75496;SDS011;64074;47.540;19.072;2024-03-23T16:11:27;5.70;;;3.07;;
75496;SDS011;64074;47.540;19.072;2024-03-23T16:14:30;5.20;;;2.78;;
75496;SDS011;64074;47.540;19.072;2024-03-23T16:17:39;4.97;;;3.00;;
75496;SDS011;64074;47.540;19.072;2024-03-23T16:20:42;7.90;;;2.80;;
75496;SDS011;64074;47.540;19.072;2024-03-23T16:24:00;4.40;;;2.70;;
75496;SDS011;64074;47.540;19.072;2024-03-23T16:27:31;4.40;;;2.87;;
75496;SDS011;64074;47.540;19.072;2024-03-23T16:31:06;5.68;;;2.67;;
75496;SDS011;64074;47.540;19.072;2024-03-23T16:34:21;5.28;;;3.17;;
75496;SDS011;64074;47.540;19.072;2024-03-23T16:37:41;4.40;;;2.60;;
75496;SDS011;64074;47.540;19.072;2024-03-23T16:41:08;5.78;;;2.92;;
75496;SDS011;64074;47.540;19.072;2024-03-23T16:44:26;4.20;;;2.90;;
75496;SDS011;64074;47.540;19.072;2024-03-23T16:47:47;6.30;;;2.65;;
75496;SDS011;64074;47.540;19.072;2024-03-23T16:51:14;5.78;;;3.03;;
75496;SDS011;64074;47.540;19.072;2024-03-23T16:54:34;5.40;;;3.20;;
75496;SDS011;64074;47.540;19.072;2024-03-23T16:57:54;5.25;;;3.30;;
75496;SDS011;64074;47.540;19.072;2024-03-23T17:01:16;8.40;;;2.90;;
75496;SDS011;64074;47.540;19.072;2024-03-23T17:04:40;65.30;;;4.05;;
75496;SDS011;64074;47.540;19.072;2024-03-23T17:08:02;17.42;;;1.55;;
75496;SDS011;64074;47.540;19.072;2024-03-23T17:11:26;20.98;;;1.88;;
75496;SDS011;64074;47.540;19.072;2024-03-23T17:14:45;16.25;;;0.80;;
75496;SDS011;64074;47.540;19.072;2024-03-23T17:18:08;27.07;;;1.40;;
75496;SDS011;64074;47.540;19.072;2024-03-23T17:21:31;7.57;;;0.47;;
75496;SDS011;64074;47.540;19.072;2024-03-23T17:24:56;7.45;;;0.60;;
75496;SDS011;64074;47.540;19.072;2024-03-23T17:28:06;8.02;;;0.57;;
75496;SDS011;64074;47.540;19.072;2024-03-23T17:31:19;10.50;;;1.35;;
75496;SDS011;64074;47.540;19.072;2024-03-23T17:34:24;23.57;;;0.90;;
75496;SDS011;64074;47.540;19.072;2024-03-23T17:37:34;24.55;;;1.33;;
75496;SDS011;64074;47.540;19.072;2024-03-23T17:40:58;15.90;;;1.08;;
75496;SDS011;64074;47.540;19.072;2024-03-23T17:44:19;6.88;;;0.55;;
75496;SDS011;64074;47.540;19.072;2024-03-23T17:47:35;6.32;;;0.52;;
75496;SDS011;64074;47.540;19.072;2024-03-23T17:51:05;11.70;;;1.00;;
75496;SDS011;64074;47.540;19.072;2024-03-23T17:54:22;0.77;;;0.30;;
75496;SDS011;64074;47.540;19.072;2024-03-23T17:57:49;2.30;;;0.40;;
75496;SDS011;64074;47.540;19.072;2024-03-23T18:00:58;3.50;;;0.30;;
75496;SDS011;64074;47.540;19.072;2024-03-23T18:04:33;5.90;;;0.50;;
75496;SDS011;64074;47.540;19.072;2024-03-23T18:07:53;2.60;;;0.30;;
75496;SDS011;64074;47.540;19.072;2024-03-23T18:11:21;1.48;;;0.50;;
75496;SDS011;64074;47.540;19.072;2024-03-23T18:14:37;19.20;;;1.02;;
75496;SDS011;64074;47.540;19.072;2024-03-23T18:18:27;23.45;;;1.00;;
75496;SDS011;64074;47.540;19.072;2024-03-23T18:21:39;1.40;;;0.40;;
75496;SDS011;64074;47.540;19.072;2024-03-23T18:25:01;9.70;;;0.60;;
75496;SDS011;64074;47.540;19.072;2024-03-23T18:28:07;3.70;;;0.38;;
75496;SDS011;64074;47.540;19.072;2024-03-23T18:31:13;5.70;;;0.47;;
75496;SDS011;64074;47.540;19.072;2024-03-23T18:34:20;8.60;;;0.50;;
75496;SDS011;64074;47.540;19.072;2024-03-23T18:37:28;11.90;;;0.40;;
75496;SDS011;64074;47.540;19.072;2024-03-23T18:40:55;2.30;;;0.40;;
75496;SDS011;64074;47.540;19.072;2024-03-23T18:44:12;18.17;;;0.70;;
75496;SDS011;64074;47.540;19.072;2024-03-23T18:47:33;9.68;;;0.90;;
75496;SDS011;64074;47.540;19.072;2024-03-23T18:50:37;11.38;;;1.13;;
75496;SDS011;64074;47.540;19.072;2024-03-23T18:53:45;5.50;;;1.65;;
75496;SDS011;64074;47.540;19.072;2024-03-23T18:56:54;7.43;;;0.97;;
75496;SDS011;64074;47.540;19.072;2024-03-23T19:00:16;5.00;;;0.60;;
75496;SDS011;64074;47.540;19.072;2024-03-23T19:03:38;2.70;;;0.20;;
75496;SDS011;64074;47.540;19.072;2024-03-23T19:07:07;1.05;;;0.30;;
75496;SDS011;64074;47.540;19.072;2024-03-23T19:10:22;4.15;;;0.50;;
75496;SDS011;64074;47.540;19.072;2024-03-23T19:13:45;2.57;;;0.73;;
75496;SDS011;64074;47.540;19.072;2024-03-23T19:17:07;2.88;;;0.60;;
75496;SDS011;64074;47.540;19.072;2024-03-23T19:20:50;1.33;;;0.40;;
75496;SDS011;64074;47.540;19.072;2024-03-23T19:24:03;1.45;;;0.45;;
75496;SDS011;64074;47.540;19.072;2024-03-23T19:27:18;2.70;;;0.50;;
75496;SDS011;64074;47.540;19.072;2024-03-23T19:30:34;2.90;;;0.60;;
75496;SDS011;64074;47.540;19.072;2024-03-23T19:34:01;5.72;;;1.13;;
75496;SDS011;64074;47.540;19.072;2024-03-23T19:37:15;5.57;;;1.42;;
75496;SDS011;64074;47.540;19.072;2024-03-23T19:40:45;2.63;;;0.80;;
75496;SDS011;64074;47.540;19.072;2024-03-23T19:44:02;5.50;;;1.52;;
75496;SDS011;64074;47.540;19.072;2024-03-23T19:47:11;2.83;;;0.83;;
75496;SDS011;64074;47.540;19.072;2024-03-23T19:50:30;1.33;;;0.60;;
75496;SDS011;64074;47.540;19.072;2024-03-23T19:53:51;4.63;;;0.70;;
75496;SDS011;64074;47.540;19.072;2024-03-23T19:57:09;3.15;;;0.57;;
75496;SDS011;64074;47.540;19.072;2024-03-23T20:00:28;4.35;;;0.95;;
75496;SDS011;64074;47.540;19.072;2024-03-23T20:03:54;2.23;;;0.70;;
75496;SDS011;64074;47.540;19.072;2024-03-23T20:07:16;2.40;;;0.63;;
75496;SDS011;64074;47.540;19.072;2024-03-23T20:10:46;2.30;;;0.75;;
75496;SDS011;64074;47.540;19.072;2024-03-23T20:14:05;1.65;;;0.60;;
75496;SDS011;64074;47.540;19.072;2024-03-23T20:17:08;2.58;;;0.47;;
75496;SDS011;64074;47.540;19.072;2024-03-23T20:20:17;0.93;;;0.53;;